createdAt,value
2018-11-10T00:00:19.330Z,18.03
2018-11-10T00:02:49.430Z,18.80
2018-11-10T00:05:19.445Z,18.23
2018-11-10T00:07:48.529Z,17.50
2018-11-10T00:10:18.401Z,18.73
2018-11-10T00:12:48.546Z,18.63
2018-11-10T00:15:17.628Z,17.60
2018-11-10T00:17:46.595Z,18.70
2018-11-10T00:20:15.644Z,17.67
2018-11-10T00:22:45.268Z,18.80
2018-11-10T00:25:14.896Z,18.97
2018-11-10T00:27:45.152Z,18.23
2018-11-10T00:30:15.325Z,20.40
2018-11-10T00:32:44.954Z,19.37
2018-11-10T00:35:14.351Z,17.93
2018-11-10T00:37:43.306Z,19.67
2018-11-10T00:40:13.702Z,19.30
2018-11-10T00:42:42.944Z,19.87
2018-11-10T00:45:11.879Z,19.67
2018-11-10T00:47:40.655Z,19.33
2018-11-10T00:50:10.094Z,20.20
2018-11-10T00:52:39.458Z,18.77
2018-11-10T00:55:08.628Z,18.17
2018-11-10T00:57:37.406Z,19.20
2018-11-10T01:00:06.550Z,19.20
2018-11-10T01:02:35.096Z,19.00
2018-11-10T01:05:03.959Z,20.73
2018-11-10T01:07:32.583Z,20.33
2018-11-10T01:10:01.216Z,19.17
2018-11-10T01:12:29.842Z,18.20
2018-11-10T01:14:58.478Z,17.67
2018-11-10T01:17:27.027Z,18.50
2018-11-10T01:19:56.490Z,18.73
2018-11-10T01:22:25.281Z,18.60
2018-11-10T01:24:54.040Z,18.17
2018-11-10T01:27:22.473Z,16.97
2018-11-10T01:29:50.872Z,15.80
2018-11-10T01:32:19.595Z,16.65
2018-11-10T01:34:48.529Z,16.40
2018-11-10T01:37:17.313Z,17.50
2018-11-10T01:39:45.961Z,17.87
2018-11-10T01:42:14.364Z,19.03
2018-11-10T01:44:43.027Z,17.80
2018-11-10T01:47:11.885Z,17.37
2018-11-10T01:49:40.685Z,18.97
2018-11-10T01:52:09.631Z,17.50
2018-11-10T01:54:38.547Z,16.47
2018-11-10T01:57:07.130Z,18.43
2018-11-10T01:59:35.577Z,19.43
2018-11-10T02:02:04.428Z,24.00
2018-11-10T02:04:33.005Z,19.52
2018-11-10T02:07:01.928Z,18.07
2018-11-10T02:09:30.779Z,18.23
2018-11-10T02:11:59.294Z,18.73
2018-11-10T02:14:27.859Z,18.05
2018-11-10T02:16:56.331Z,17.80
2018-11-10T02:19:25.222Z,18.70
2018-11-10T02:21:54.114Z,17.70
2018-11-10T02:24:22.704Z,16.87
2018-11-10T02:26:51.482Z,18.83
2018-11-10T02:29:20.176Z,19.20
2018-11-10T02:31:48.963Z,18.50
2018-11-10T02:34:17.618Z,16.73
2018-11-10T02:36:46.284Z,16.83
2018-11-10T02:39:15.006Z,17.90
2018-11-10T02:41:43.694Z,18.10
2018-11-10T02:44:12.397Z,17.03
2018-11-10T02:46:41.564Z,17.53
2018-11-10T02:49:10.169Z,17.87
2018-11-10T02:51:38.998Z,16.17
2018-11-10T02:54:07.530Z,16.57
2018-11-10T02:56:35.974Z,17.90
2018-11-10T02:59:04.762Z,16.00
2018-11-10T03:01:33.326Z,18.00
2018-11-10T03:04:02.010Z,16.00
2018-11-10T03:06:30.441Z,17.37
2018-11-10T03:08:58.983Z,16.50
2018-11-10T03:11:27.714Z,16.20
2018-11-10T03:13:56.230Z,16.37
2018-11-10T03:16:25.222Z,16.00
2018-11-10T03:18:54.707Z,17.67
2018-11-10T03:21:23.627Z,17.40
2018-11-10T03:23:52.047Z,15.33
2018-11-10T03:26:20.566Z,16.30
2018-11-10T03:28:49.002Z,16.83
2018-11-10T03:31:17.528Z,17.37
2018-11-10T03:33:46.018Z,17.63
2018-11-10T03:36:14.412Z,16.23
2018-11-10T03:38:42.952Z,17.50
2018-11-10T03:41:11.460Z,18.37
2018-11-10T03:43:39.996Z,17.60
2018-11-10T03:46:08.860Z,17.63
2018-11-10T03:48:37.804Z,18.42
2018-11-10T03:51:06.218Z,17.20
2018-11-10T03:53:34.984Z,17.70
2018-11-10T03:56:03.542Z,18.10
2018-11-10T03:58:31.998Z,17.73
2018-11-10T04:01:00.631Z,19.30
2018-11-10T04:03:29.260Z,17.57
2018-11-10T04:05:57.868Z,17.90
2018-11-10T04:08:26.579Z,17.83
2018-11-10T04:10:55.065Z,17.63
2018-11-10T04:13:23.969Z,19.00
2018-11-10T04:15:52.652Z,17.73
2018-11-10T04:18:21.319Z,17.77
2018-11-10T04:20:50.110Z,17.47
2018-11-10T04:23:18.705Z,18.07
2018-11-10T04:25:47.623Z,18.40
2018-11-10T04:28:16.061Z,17.73
2018-11-10T04:30:44.672Z,18.50
2018-11-10T04:33:13.152Z,19.17
2018-11-10T04:35:41.670Z,18.95
2018-11-10T04:38:10.241Z,18.70
2018-11-10T04:40:39.062Z,18.07
2018-11-10T04:43:07.946Z,19.70
2018-11-10T04:45:37.867Z,18.37
2018-11-10T04:48:06.860Z,19.40
2018-11-10T04:50:35.482Z,21.40
2018-11-10T04:53:04.150Z,20.33
2018-11-10T04:55:32.688Z,20.53
2018-11-10T04:58:01.489Z,20.20
2018-11-10T05:00:29.979Z,22.60
2018-11-10T05:02:58.657Z,20.80
2018-11-10T05:05:27.218Z,23.03
2018-11-10T05:07:55.892Z,22.52
2018-11-10T05:10:24.779Z,24.60
2018-11-10T05:12:53.684Z,25.17
2018-11-10T05:15:22.647Z,26.03
2018-11-10T05:17:51.214Z,26.53
2018-11-10T05:20:19.825Z,27.00
2018-11-10T05:22:48.436Z,27.57
2018-11-10T05:25:16.983Z,27.07
2018-11-10T05:27:45.597Z,23.30
2018-11-10T05:30:14.356Z,27.13
2018-11-10T05:32:43.141Z,25.80
2018-11-10T05:35:12.766Z,25.10
2018-11-10T05:37:41.446Z,25.77
2018-11-10T05:40:11.185Z,25.23
2018-11-10T05:42:40.383Z,25.67
2018-11-10T05:45:09.394Z,25.10
2018-11-10T05:47:38.459Z,25.40
2018-11-10T05:50:08.238Z,25.90
2018-11-10T05:52:36.985Z,24.20
2018-11-10T05:55:06.527Z,23.23
2018-11-10T05:57:35.185Z,22.60
2018-11-10T06:00:04.636Z,21.27
2018-11-10T06:02:33.604Z,23.10
2018-11-10T06:05:02.510Z,22.60
2018-11-10T06:07:31.311Z,24.13
2018-11-10T06:09:59.994Z,23.77
2018-11-10T06:12:28.696Z,23.12
2018-11-10T06:14:57.364Z,24.93
2018-11-10T06:17:26.107Z,23.40
2018-11-10T06:19:55.020Z,24.10
2018-11-10T06:22:24.111Z,23.80
2018-11-10T06:59:27.842Z,21.47
2018-11-10T07:01:57.067Z,22.87
2018-11-10T07:04:26.333Z,22.80
2018-11-10T07:06:57.659Z,21.20
2018-11-10T07:09:27.642Z,22.37
2018-11-10T07:28:24.649Z,24.07
2018-11-10T07:30:54.164Z,24.50
2018-11-10T07:33:23.175Z,25.25
2018-11-10T07:35:52.346Z,27.23
2018-11-10T07:38:21.822Z,26.37
2018-11-10T07:40:50.818Z,27.07
2018-11-10T07:43:19.762Z,25.03
2018-11-10T07:45:48.715Z,26.33
2018-11-10T07:48:17.995Z,26.33
2018-11-10T07:50:47.306Z,25.90
2018-11-10T07:53:16.329Z,26.07
2018-11-10T07:55:45.189Z,26.30
2018-11-10T07:58:13.969Z,25.40
2018-11-10T08:00:42.924Z,26.30
2018-11-10T08:03:12.563Z,25.93
2018-11-10T08:05:41.542Z,27.13
2018-11-10T08:08:10.342Z,26.00
2018-11-10T08:10:39.565Z,25.50
2018-11-10T08:13:09.022Z,27.80
2018-11-10T08:15:38.575Z,28.77
2018-11-10T08:18:07.687Z,25.40
2018-11-10T08:20:38.073Z,28.30
2018-11-10T08:23:07.384Z,27.17
2018-11-10T08:25:35.973Z,27.93
2018-11-10T08:28:04.658Z,26.87
2018-11-10T08:30:33.539Z,27.17
2018-11-10T08:33:02.371Z,25.87
2018-11-10T08:35:31.279Z,27.60
2018-11-10T08:38:00.156Z,25.27
2018-11-10T08:40:30.501Z,27.77
2018-11-10T08:42:59.444Z,27.20
2018-11-10T08:45:28.385Z,26.27
2018-11-10T08:47:56.967Z,27.80
2018-11-10T08:50:25.922Z,26.17
2018-11-10T08:52:55.340Z,26.47
2018-11-10T08:55:24.299Z,28.77
2018-11-10T08:57:53.355Z,26.33
2018-11-10T09:00:22.068Z,25.00
2018-11-10T09:02:50.739Z,26.10
2018-11-10T09:05:19.568Z,24.10
2018-11-10T09:07:48.460Z,24.35
2018-11-10T09:10:17.594Z,25.07
2018-11-10T09:12:46.241Z,25.23
2018-11-10T09:15:15.866Z,23.33
2018-11-10T09:17:44.989Z,24.37
2018-11-10T09:20:14.992Z,25.97
2018-11-10T09:22:44.491Z,25.33
2018-11-10T09:25:14.959Z,26.73
2018-11-10T09:27:44.061Z,24.20
2018-11-10T09:30:14.420Z,25.03
2018-11-10T09:32:43.771Z,25.20
2018-11-10T09:35:14.145Z,25.50
2018-11-10T09:37:42.966Z,23.73
2018-11-10T09:40:14.349Z,24.72
2018-11-10T09:42:43.536Z,26.17
2018-11-10T09:45:13.701Z,25.67
2018-11-10T09:47:42.328Z,27.67
2018-11-10T09:50:21.106Z,27.33
2018-11-10T09:52:50.347Z,26.27
2018-11-10T09:55:19.538Z,27.27
2018-11-10T09:57:48.267Z,27.63
2018-11-10T10:00:19.488Z,26.40
2018-11-10T10:02:48.551Z,25.90
2018-11-10T10:05:17.386Z,25.30
2018-11-10T10:07:46.184Z,24.10
2018-11-10T10:10:38.078Z,24.80
2018-11-10T10:13:17.315Z,23.20
2018-11-10T10:15:58.721Z,22.57
2018-11-10T10:21:36.910Z,22.63
2018-11-10T10:24:08.399Z,20.93
2018-11-10T10:30:25.051Z,18.97
2018-11-10T10:33:06.390Z,18.40
2018-11-10T10:41:40.013Z,19.13
2018-11-10T10:45:47.840Z,19.63
2018-11-10T10:48:52.153Z,18.90
2018-11-10T11:36:32.356Z,15.67
2018-11-10T11:39:02.484Z,13.90
2018-11-10T11:41:38.217Z,14.03
2018-11-10T11:44:08.682Z,15.43
2018-11-10T11:46:39.555Z,14.50
2018-11-10T11:49:12.092Z,13.17
2018-11-10T11:51:41.610Z,14.57
2018-11-10T11:59:03.623Z,15.97
2018-11-10T12:01:43.608Z,14.90
2018-11-10T12:04:20.191Z,14.93
2018-11-10T12:21:46.608Z,15.57
2018-11-10T12:24:16.293Z,15.33
2018-11-10T12:26:45.613Z,16.47
2018-11-10T12:29:17.911Z,15.80
2018-11-10T12:31:47.041Z,15.83
2018-11-10T12:34:16.568Z,16.97
2018-11-10T12:36:45.602Z,15.78
2018-11-10T12:39:15.383Z,15.90
2018-11-10T12:41:44.815Z,14.50
2018-11-10T12:44:19.031Z,14.90
2018-11-10T12:46:48.599Z,13.30
2018-11-10T12:49:18.049Z,14.20
2018-11-10T12:51:46.981Z,13.40
2018-11-10T12:54:19.096Z,12.67
2018-11-10T12:56:48.946Z,13.55
2018-11-10T12:59:18.747Z,13.43
2018-11-10T13:01:48.083Z,11.90
2018-11-10T13:04:18.511Z,12.20
2018-11-10T13:06:56.182Z,11.60
2018-11-10T13:09:29.078Z,11.60
2018-11-10T13:14:45.028Z,13.00
2018-11-10T13:17:19.668Z,12.80
2018-11-10T13:20:07.500Z,12.70
2018-11-10T13:22:37.889Z,12.33
2018-11-10T13:25:09.663Z,11.80
2018-11-10T13:27:41.719Z,11.40
2018-11-10T13:30:17.599Z,12.65
2018-11-10T13:32:56.292Z,12.13
2018-11-10T13:35:37.938Z,12.73
2018-11-10T13:38:34.698Z,13.40
2018-11-10T13:41:09.904Z,12.45
2018-11-10T13:46:34.503Z,12.50
2018-11-10T13:49:11.719Z,12.27
2018-11-10T13:51:43.738Z,12.20
2018-11-10T14:07:02.242Z,18.27
2018-11-10T16:02:18.137Z,15.70
2018-11-10T16:04:46.836Z,17.40
2018-11-10T16:07:15.645Z,16.93
2018-11-10T16:12:53.552Z,15.83
2018-11-10T16:15:25.283Z,15.70
2018-11-10T16:17:56.042Z,18.23
2018-11-10T16:20:31.102Z,18.03
2018-11-10T16:23:00.341Z,17.20
2018-11-10T16:25:29.562Z,17.23
2018-11-10T16:27:58.652Z,13.97
2018-11-10T16:30:27.956Z,15.50
2018-11-10T16:32:56.942Z,14.77
2018-11-10T16:35:26.455Z,14.80
2018-11-10T16:37:56.070Z,15.20
2018-11-10T16:40:25.035Z,14.35
2018-11-10T16:42:54.232Z,16.70
2018-11-10T16:45:23.425Z,15.27
2018-11-10T16:47:54.449Z,16.13
2018-11-10T16:50:23.574Z,17.20
2018-11-10T16:52:52.671Z,19.00
2018-11-10T16:55:21.427Z,18.80
2018-11-10T16:57:50.010Z,19.07
2018-11-10T17:00:19.755Z,18.90
2018-11-10T17:02:48.393Z,17.47
2018-11-10T17:05:16.997Z,18.50
2018-11-10T17:07:46.134Z,18.40
2018-11-10T17:10:16.771Z,17.60
2018-11-10T17:12:45.551Z,17.77
2018-11-10T17:15:14.232Z,18.83
2018-11-10T17:17:43.121Z,21.85
2018-11-10T17:20:16.140Z,21.93
2018-11-10T17:22:45.829Z,20.10
2018-11-10T17:25:15.126Z,20.90
2018-11-10T17:27:44.293Z,19.10
2018-11-10T17:30:15.096Z,22.43
2018-11-10T17:32:44.009Z,24.57
2018-11-10T17:35:13.600Z,21.70
2018-11-10T17:37:42.390Z,23.40
2018-11-10T17:40:11.861Z,17.53
2018-11-10T17:42:40.837Z,14.90
2018-11-10T17:45:12.051Z,16.23
2018-11-10T17:47:41.092Z,16.07
2018-11-10T17:50:11.061Z,18.47
2018-11-10T17:52:40.436Z,18.10
2018-11-10T17:55:10.593Z,20.60
2018-11-10T17:57:39.760Z,20.13
2018-11-10T18:00:08.592Z,20.85
2018-11-10T18:02:37.447Z,19.23
2018-11-10T18:05:20.608Z,19.20
2018-11-10T18:07:49.471Z,20.10
2018-11-10T18:10:18.900Z,19.63
2018-11-10T18:12:47.573Z,18.62
2018-11-10T18:15:16.506Z,18.10
2018-11-10T18:17:46.419Z,18.47
2018-11-10T18:20:16.476Z,19.02
2018-11-10T18:22:45.755Z,20.20
2018-11-10T18:25:14.512Z,18.70
2018-11-10T18:27:43.311Z,18.73
2018-11-10T18:30:13.715Z,20.30
2018-11-10T18:32:42.731Z,18.70
2018-11-10T18:35:12.809Z,16.23
2018-11-10T18:37:42.082Z,12.97
2018-11-10T18:40:10.951Z,13.83
2018-11-10T18:42:39.588Z,14.60
2018-11-10T18:45:09.645Z,15.00
2018-11-10T18:47:38.912Z,15.10
2018-11-10T18:50:09.576Z,17.80
2018-11-10T18:52:38.652Z,17.43
2018-11-10T18:55:07.315Z,18.20
2018-11-10T18:57:36.041Z,17.90
2018-11-10T19:00:05.454Z,18.10
2018-11-10T19:02:34.334Z,21.55
2018-11-10T19:05:04.313Z,21.25
2018-11-10T19:07:32.952Z,23.13
2018-11-10T19:10:01.733Z,24.67
2018-11-10T19:12:30.301Z,23.20
2018-11-10T19:14:58.914Z,24.20
2018-11-10T19:17:27.580Z,24.17
2018-11-10T19:19:56.110Z,25.43
2018-11-10T19:22:25.516Z,29.07
2018-11-10T19:24:54.232Z,28.53
2018-11-10T19:27:23.089Z,27.87
2018-11-10T19:29:51.725Z,22.23
2018-11-10T19:32:20.687Z,21.37
2018-11-10T19:34:49.323Z,24.75
2018-11-10T19:37:17.921Z,28.50
2018-11-10T19:39:46.759Z,27.30
2018-11-10T19:42:15.804Z,26.77
2018-11-10T19:44:44.539Z,25.13
2018-11-10T19:47:13.166Z,27.40
2018-11-10T19:49:42.142Z,25.30
2018-11-10T19:52:11.204Z,27.07
2018-11-10T19:54:39.835Z,30.43
2018-11-10T19:57:08.703Z,25.10
2018-11-10T19:59:37.239Z,25.33
2018-11-10T20:02:05.937Z,21.43
2018-11-10T20:04:34.564Z,20.87
2018-11-10T20:07:03.289Z,24.95
2018-11-10T20:09:32.107Z,25.80
2018-11-10T20:12:00.722Z,30.73
2018-11-10T20:14:29.407Z,30.53
2018-11-10T20:16:58.117Z,29.17
2018-11-10T20:19:26.609Z,28.30
2018-11-10T20:21:55.153Z,27.80
2018-11-10T20:24:23.636Z,29.50
2018-11-10T20:26:52.529Z,27.00
2018-11-10T20:29:21.304Z,25.73
2018-11-10T20:31:49.952Z,26.07
2018-11-10T20:34:18.705Z,26.60
2018-11-10T20:36:47.660Z,26.57
2018-11-10T20:39:16.681Z,23.80
2018-11-10T20:41:45.358Z,24.47
2018-11-10T20:44:14.146Z,31.50
2018-11-10T20:46:42.718Z,49.07
2018-11-10T20:49:11.573Z,29.93
2018-11-10T20:51:40.286Z,20.80
2018-11-10T20:54:09.213Z,21.80
2018-11-10T20:56:38.213Z,23.77
2018-11-10T20:59:06.812Z,24.43
2018-11-10T21:01:35.680Z,24.18
2018-11-10T21:04:04.422Z,29.50
2018-11-10T21:06:33.099Z,25.83
2018-11-10T21:09:01.790Z,27.50
2018-11-10T21:11:30.648Z,23.60
2018-11-10T21:13:59.473Z,17.70
2018-11-10T21:16:28.087Z,17.20
2018-11-10T21:18:56.997Z,19.70
2018-11-10T21:21:27.121Z,16.70
2018-11-10T21:23:56.023Z,14.60
2018-11-10T21:26:24.818Z,13.20
2018-11-10T21:28:53.841Z,13.77
2018-11-10T21:31:22.468Z,13.67
2018-11-10T21:33:51.584Z,13.40
2018-11-10T21:36:20.689Z,16.83
2018-11-10T21:38:49.655Z,17.87
2018-11-10T21:41:18.672Z,16.67
2018-11-10T21:43:47.786Z,17.32
2018-11-10T21:46:16.688Z,16.90
2018-11-10T21:48:45.542Z,18.30
2018-11-10T21:51:14.267Z,18.20
2018-11-10T21:53:42.935Z,18.97
2018-11-10T21:56:11.862Z,18.75
2018-11-10T21:58:40.886Z,18.67
2018-11-10T22:01:09.832Z,19.47
2018-11-10T22:03:38.863Z,20.70
2018-11-10T22:06:07.730Z,23.20
2018-11-10T22:08:36.645Z,22.47
2018-11-10T22:11:05.751Z,22.63
2018-11-10T22:13:35.049Z,25.97
2018-11-10T22:16:03.984Z,23.77
2018-11-10T22:18:34.370Z,24.70
2018-11-10T22:21:04.660Z,25.97
2018-11-10T22:23:34.004Z,26.00
2018-11-10T22:26:03.503Z,22.15
2018-11-10T22:28:33.635Z,22.70
2018-11-10T22:31:02.661Z,22.53
2018-11-10T22:33:37.458Z,23.33
2018-11-10T22:36:06.980Z,23.20
2018-11-10T22:38:37.889Z,21.77
2018-11-10T22:41:07.529Z,21.50
2018-11-10T22:43:37.152Z,23.40
2018-11-10T22:46:08.206Z,23.63
2018-11-10T22:48:38.092Z,24.27
2018-11-10T22:51:09.508Z,24.17
2018-11-10T22:53:38.726Z,25.08
2018-11-10T22:56:10.892Z,22.43
2018-11-10T22:58:42.040Z,21.57
2018-11-10T23:01:11.985Z,21.40
2018-11-10T23:03:41.324Z,20.93
2018-11-10T23:06:10.876Z,20.53
2018-11-10T23:08:40.166Z,19.50
2018-11-10T23:11:09.624Z,20.57
2018-11-10T23:13:38.933Z,21.13
2018-11-10T23:16:08.693Z,21.57
2018-11-10T23:18:38.097Z,18.92
2018-11-10T23:21:09.710Z,17.53
2018-11-10T23:23:40.423Z,16.23
2018-11-10T23:26:09.181Z,16.50
2018-11-10T23:28:38.326Z,15.90
2018-11-10T23:31:07.574Z,15.53
2018-11-10T23:33:36.900Z,16.87
2018-11-10T23:36:06.107Z,16.27
2018-11-10T23:38:35.148Z,16.73
2018-11-10T23:41:04.134Z,17.40
2018-11-10T23:43:34.289Z,18.43
2018-11-10T23:46:03.408Z,16.70
2018-11-10T23:48:31.955Z,17.90
2018-11-10T23:51:01.214Z,17.23
2018-11-10T23:53:30.240Z,18.00
2018-11-10T23:55:59.295Z,17.87
2018-11-10T23:58:28.220Z,18.73
